sensor_id;sensor_type;location;lat;lon;timestamp;P1;durP1;ratioP1;P2;durP2;ratioP2
75295;SDS011;64623;44.738;37.804;2022-11-20T00:01:37;14.75;;;7.25;;
75295;SDS011;64623;44.738;37.804;2022-11-20T00:04:06;19.05;;;9.30;;
75295;SDS011;64623;44.738;37.804;2022-11-20T00:06:36;17.75;;;7.60;;
75295;SDS011;64623;44.738;37.804;2022-11-20T00:09:05;15.85;;;7.50;;
75295;SDS011;64623;44.738;37.804;2022-11-20T00:11:34;17.30;;;8.48;;
75295;SDS011;64623;44.738;37.804;2022-11-20T00:14:03;16.35;;;7.20;;
75295;SDS011;64623;44.738;37.804;2022-11-20T00:16:32;15.55;;;7.22;;
75295;SDS011;64623;44.738;37.804;2022-11-20T00:19:01;21.60;;;8.63;;
75295;SDS011;64623;44.738;37.804;2022-11-20T00:21:30;17.70;;;8.15;;
75295;SDS011;64623;44.738;37.804;2022-11-20T00:23:59;17.15;;;7.38;;
75295;SDS011;64623;44.738;37.804;2022-11-20T00:26:28;20.98;;;7.05;;
75295;SDS011;64623;44.738;37.804;2022-11-20T00:28:58;17.40;;;7.93;;
75295;SDS011;64623;44.738;37.804;2022-11-20T00:31:29;21.30;;;8.68;;
75295;SDS011;64623;44.738;37.804;2022-11-20T00:33:59;18.17;;;7.90;;
75295;SDS011;64623;44.738;37.804;2022-11-20T00:36:28;20.27;;;9.38;;
75295;SDS011;64623;44.738;37.804;2022-11-20T00:38:59;17.13;;;7.40;;
75295;SDS011;64623;44.738;37.804;2022-11-20T00:41:29;19.80;;;7.53;;
75295;SDS011;64623;44.738;37.804;2022-11-20T00:43:58;23.23;;;9.27;;
75295;SDS011;64623;44.738;37.804;2022-11-20T00:46:27;18.60;;;7.07;;
75295;SDS011;64623;44.738;37.804;2022-11-20T00:48:56;22.38;;;6.13;;
75295;SDS011;64623;44.738;37.804;2022-11-20T00:51:25;18.48;;;7.20;;
75295;SDS011;64623;44.738;37.804;2022-11-20T00:53:56;20.08;;;9.15;;
75295;SDS011;64623;44.738;37.804;2022-11-20T00:56:26;21.75;;;8.45;;
75295;SDS011;64623;44.738;37.804;2022-11-20T00:58:55;27.58;;;8.18;;
75295;SDS011;64623;44.738;37.804;2022-11-20T01:01:27;33.97;;;8.95;;
75295;SDS011;64623;44.738;37.804;2022-11-20T01:03:59;26.83;;;9.13;;
75295;SDS011;64623;44.738;37.804;2022-11-20T01:06:33;24.80;;;7.50;;
75295;SDS011;64623;44.738;37.804;2022-11-20T01:09:05;22.85;;;7.70;;
75295;SDS011;64623;44.738;37.804;2022-11-20T01:11:36;16.90;;;4.63;;
75295;SDS011;64623;44.738;37.804;2022-11-20T01:14:09;24.00;;;6.20;;
75295;SDS011;64623;44.738;37.804;2022-11-20T01:16:42;36.78;;;9.82;;
75295;SDS011;64623;44.738;37.804;2022-11-20T01:19:13;28.80;;;7.32;;
75295;SDS011;64623;44.738;37.804;2022-11-20T01:21:45;47.25;;;9.93;;
75295;SDS011;64623;44.738;37.804;2022-11-20T01:24:16;34.25;;;8.27;;
75295;SDS011;64623;44.738;37.804;2022-11-20T01:26:48;40.25;;;8.70;;
75295;SDS011;64623;44.738;37.804;2022-11-20T01:29:19;25.50;;;6.45;;
75295;SDS011;64623;44.738;37.804;2022-11-20T01:31:50;23.48;;;6.72;;
75295;SDS011;64623;44.738;37.804;2022-11-20T01:34:20;17.02;;;5.35;;
75295;SDS011;64623;44.738;37.804;2022-11-20T01:36:51;16.15;;;5.82;;
75295;SDS011;64623;44.738;37.804;2022-11-20T01:39:25;41.15;;;8.80;;
75295;SDS011;64623;44.738;37.804;2022-11-20T01:41:55;30.02;;;7.60;;
75295;SDS011;64623;44.738;37.804;2022-11-20T01:50:26;15.82;;;5.85;;
75295;SDS011;64623;44.738;37.804;2022-11-20T01:53:02;17.75;;;7.80;;
75295;SDS011;64623;44.738;37.804;2022-11-20T01:55:36;15.85;;;6.38;;
75295;SDS011;64623;44.738;37.804;2022-11-20T01:58:33;22.80;;;6.95;;
75295;SDS011;64623;44.738;37.804;2022-11-20T02:01:05;22.55;;;7.20;;
75295;SDS011;64623;44.738;37.804;2022-11-20T02:03:33;30.35;;;7.40;;
75295;SDS011;64623;44.738;37.804;2022-11-20T02:06:04;26.45;;;7.80;;
75295;SDS011;64623;44.738;37.804;2022-11-20T02:08:35;31.10;;;9.98;;
75295;SDS011;64623;44.738;37.804;2022-11-20T02:11:06;14.73;;;6.65;;
75295;SDS011;64623;44.738;37.804;2022-11-20T02:13:35;18.40;;;7.72;;
75295;SDS011;64623;44.738;37.804;2022-11-20T02:16:18;16.50;;;8.27;;
75295;SDS011;64623;44.738;37.804;2022-11-20T02:29:29;19.17;;;8.68;;
75295;SDS011;64623;44.738;37.804;2022-11-20T02:32:05;17.27;;;6.57;;
75295;SDS011;64623;44.738;37.804;2022-11-20T02:34:34;20.98;;;8.23;;
75295;SDS011;64623;44.738;37.804;2022-11-20T02:37:03;13.68;;;7.80;;
75295;SDS011;64623;44.738;37.804;2022-11-20T02:39:31;15.05;;;6.20;;
75295;SDS011;64623;44.738;37.804;2022-11-20T02:42:00;24.65;;;9.13;;
75295;SDS011;64623;44.738;37.804;2022-11-20T02:44:29;10.93;;;6.55;;
75295;SDS011;64623;44.738;37.804;2022-11-20T02:46:58;13.60;;;6.82;;
75295;SDS011;64623;44.738;37.804;2022-11-20T02:49:27;15.98;;;8.48;;
75295;SDS011;64623;44.738;37.804;2022-11-20T02:51:55;28.58;;;9.32;;
75295;SDS011;64623;44.738;37.804;2022-11-20T02:54:24;20.00;;;6.65;;
75295;SDS011;64623;44.738;37.804;2022-11-20T02:56:53;17.40;;;7.38;;
75295;SDS011;64623;44.738;37.804;2022-11-20T02:59:22;17.52;;;8.20;;
75295;SDS011;64623;44.738;37.804;2022-11-20T03:01:51;17.60;;;7.75;;
75295;SDS011;64623;44.738;37.804;2022-11-20T03:04:20;15.02;;;6.65;;
75295;SDS011;64623;44.738;37.804;2022-11-20T03:06:49;21.70;;;7.80;;
75295;SDS011;64623;44.738;37.804;2022-11-20T03:09:17;25.08;;;8.32;;
75295;SDS011;64623;44.738;37.804;2022-11-20T03:11:46;22.80;;;8.57;;
75295;SDS011;64623;44.738;37.804;2022-11-20T03:14:15;14.40;;;5.78;;
75295;SDS011;64623;44.738;37.804;2022-11-20T03:16:44;31.70;;;10.30;;
75295;SDS011;64623;44.738;37.804;2022-11-20T03:19:13;21.17;;;7.40;;
75295;SDS011;64623;44.738;37.804;2022-11-20T03:21:41;27.38;;;9.20;;
75295;SDS011;64623;44.738;37.804;2022-11-20T03:24:10;23.48;;;7.45;;
75295;SDS011;64623;44.738;37.804;2022-11-20T03:26:39;21.25;;;8.35;;
75295;SDS011;64623;44.738;37.804;2022-11-20T03:29:08;22.00;;;8.80;;
75295;SDS011;64623;44.738;37.804;2022-11-20T03:31:37;25.02;;;10.13;;
75295;SDS011;64623;44.738;37.804;2022-11-20T03:34:10;31.30;;;9.07;;
75295;SDS011;64623;44.738;37.804;2022-11-20T03:36:40;13.50;;;6.55;;
75295;SDS011;64623;44.738;37.804;2022-11-20T03:39:10;10.30;;;8.27;;
75295;SDS011;64623;44.738;37.804;2022-11-20T03:41:39;17.05;;;8.13;;
75295;SDS011;64623;44.738;37.804;2022-11-20T03:44:10;14.55;;;8.70;;
75295;SDS011;64623;44.738;37.804;2022-11-20T03:46:39;12.73;;;7.18;;
75295;SDS011;64623;44.738;37.804;2022-11-20T03:49:08;11.50;;;8.13;;
75295;SDS011;64623;44.738;37.804;2022-11-20T03:51:37;13.88;;;8.80;;
75295;SDS011;64623;44.738;37.804;2022-11-20T03:54:07;13.48;;;8.65;;
75295;SDS011;64623;44.738;37.804;2022-11-20T03:56:37;15.98;;;8.45;;
75295;SDS011;64623;44.738;37.804;2022-11-20T03:59:09;17.70;;;10.02;;
75295;SDS011;64623;44.738;37.804;2022-11-20T04:01:38;24.63;;;10.10;;
75295;SDS011;64623;44.738;37.804;2022-11-20T04:04:09;19.52;;;11.00;;
75295;SDS011;64623;44.738;37.804;2022-11-20T04:06:38;19.00;;;7.13;;
75295;SDS011;64623;44.738;37.804;2022-11-20T04:09:07;23.67;;;8.65;;
75295;SDS011;64623;44.738;37.804;2022-11-20T04:11:36;23.00;;;8.10;;
75295;SDS011;64623;44.738;37.804;2022-11-20T04:16:41;15.70;;;9.35;;
75295;SDS011;64623;44.738;37.804;2022-11-20T04:19:11;32.50;;;10.02;;
75295;SDS011;64623;44.738;37.804;2022-11-20T04:21:43;31.95;;;10.55;;
75295;SDS011;64623;44.738;37.804;2022-11-20T04:24:12;20.27;;;9.50;;
75295;SDS011;64623;44.738;37.804;2022-11-20T04:26:41;17.85;;;8.02;;
75295;SDS011;64623;44.738;37.804;2022-11-20T04:29:10;23.63;;;8.45;;
75295;SDS011;64623;44.738;37.804;2022-11-20T04:31:40;21.02;;;9.50;;
75295;SDS011;64623;44.738;37.804;2022-11-20T04:34:10;23.00;;;10.38;;
75295;SDS011;64623;44.738;37.804;2022-11-20T04:36:40;24.52;;;9.85;;
75295;SDS011;64623;44.738;37.804;2022-11-20T04:39:13;12.85;;;8.65;;
75295;SDS011;64623;44.738;37.804;2022-11-20T04:41:45;14.13;;;7.38;;
75295;SDS011;64623;44.738;37.804;2022-11-20T04:44:14;14.27;;;8.25;;
75295;SDS011;64623;44.738;37.804;2022-11-20T04:46:43;14.18;;;7.90;;
75295;SDS011;64623;44.738;37.804;2022-11-20T04:49:13;16.10;;;7.50;;
75295;SDS011;64623;44.738;37.804;2022-11-20T04:51:42;16.73;;;8.85;;
75295;SDS011;64623;44.738;37.804;2022-11-20T04:54:11;12.18;;;7.95;;
75295;SDS011;64623;44.738;37.804;2022-11-20T04:56:42;12.35;;;7.82;;
75295;SDS011;64623;44.738;37.804;2022-11-20T04:59:11;10.85;;;7.18;;
75295;SDS011;64623;44.738;37.804;2022-11-20T05:01:40;11.93;;;7.13;;
75295;SDS011;64623;44.738;37.804;2022-11-20T05:04:09;10.55;;;6.60;;
75295;SDS011;64623;44.738;37.804;2022-11-20T05:06:38;10.65;;;6.55;;
75295;SDS011;64623;44.738;37.804;2022-11-20T05:09:06;9.95;;;6.28;;
75295;SDS011;64623;44.738;37.804;2022-11-20T05:11:35;40.70;;;10.27;;
75295;SDS011;64623;44.738;37.804;2022-11-20T05:14:04;34.67;;;10.70;;
75295;SDS011;64623;44.738;37.804;2022-11-20T05:16:33;28.70;;;7.88;;
75295;SDS011;64623;44.738;37.804;2022-11-20T05:19:04;20.33;;;7.65;;
75295;SDS011;64623;44.738;37.804;2022-11-20T05:21:33;9.30;;;6.28;;
75295;SDS011;64623;44.738;37.804;2022-11-20T05:24:01;11.90;;;6.57;;
75295;SDS011;64623;44.738;37.804;2022-11-20T05:26:30;9.68;;;6.68;;
75295;SDS011;64623;44.738;37.804;2022-11-20T05:29:00;11.50;;;7.82;;
75295;SDS011;64623;44.738;37.804;2022-11-20T05:31:28;12.68;;;7.07;;
75295;SDS011;64623;44.738;37.804;2022-11-20T05:33:57;11.30;;;7.13;;
75295;SDS011;64623;44.738;37.804;2022-11-20T05:36:26;15.57;;;6.28;;
75295;SDS011;64623;44.738;37.804;2022-11-20T05:38:55;25.58;;;7.25;;
75295;SDS011;64623;44.738;37.804;2022-11-20T05:41:28;24.08;;;7.38;;
75295;SDS011;64623;44.738;37.804;2022-11-20T05:43:57;13.82;;;7.57;;
75295;SDS011;64623;44.738;37.804;2022-11-20T05:46:27;23.13;;;7.72;;
75295;SDS011;64623;44.738;37.804;2022-11-20T05:48:56;21.63;;;8.23;;
75295;SDS011;64623;44.738;37.804;2022-11-20T05:51:26;14.10;;;6.40;;
75295;SDS011;64623;44.738;37.804;2022-11-20T05:53:56;13.50;;;6.65;;
75295;SDS011;64623;44.738;37.804;2022-11-20T05:56:26;9.80;;;5.10;;
75295;SDS011;64623;44.738;37.804;2022-11-20T05:58:55;8.82;;;6.82;;
75295;SDS011;64623;44.738;37.804;2022-11-20T06:01:25;16.90;;;6.82;;
75295;SDS011;64623;44.738;37.804;2022-11-20T06:03:54;39.38;;;8.10;;
75295;SDS011;64623;44.738;37.804;2022-11-20T06:06:23;23.73;;;6.22;;
75295;SDS011;64623;44.738;37.804;2022-11-20T06:08:54;28.60;;;7.25;;
75295;SDS011;64623;44.738;37.804;2022-11-20T06:11:23;22.83;;;7.97;;
75295;SDS011;64623;44.738;37.804;2022-11-20T06:13:52;10.13;;;5.15;;
75295;SDS011;64623;44.738;37.804;2022-11-20T06:16:21;9.63;;;5.13;;
75295;SDS011;64623;44.738;37.804;2022-11-20T06:18:50;8.93;;;5.82;;
75295;SDS011;64623;44.738;37.804;2022-11-20T06:21:20;9.00;;;6.22;;
75295;SDS011;64623;44.738;37.804;2022-11-20T06:23:52;9.98;;;6.55;;
75295;SDS011;64623;44.738;37.804;2022-11-20T06:26:22;12.02;;;7.15;;
75295;SDS011;64623;44.738;37.804;2022-11-20T06:31:25;11.38;;;7.07;;
75295;SDS011;64623;44.738;37.804;2022-11-20T06:33:55;8.82;;;7.93;;
75295;SDS011;64623;44.738;37.804;2022-11-20T06:36:24;16.35;;;6.93;;
75295;SDS011;64623;44.738;37.804;2022-11-20T06:38:53;13.90;;;6.18;;
75295;SDS011;64623;44.738;37.804;2022-11-20T06:41:22;23.60;;;6.75;;
75295;SDS011;64623;44.738;37.804;2022-11-20T06:43:51;13.43;;;7.07;;
75295;SDS011;64623;44.738;37.804;2022-11-20T06:46:21;9.82;;;6.03;;
75295;SDS011;64623;44.738;37.804;2022-11-20T06:48:51;13.48;;;6.43;;
75295;SDS011;64623;44.738;37.804;2022-11-20T06:51:20;11.25;;;6.75;;
75295;SDS011;64623;44.738;37.804;2022-11-20T06:53:49;9.35;;;6.63;;
75295;SDS011;64623;44.738;37.804;2022-11-20T06:56:18;12.52;;;6.68;;
75295;SDS011;64623;44.738;37.804;2022-11-20T06:58:47;9.63;;;5.75;;
75295;SDS011;64623;44.738;37.804;2022-11-20T07:01:16;9.15;;;5.15;;
75295;SDS011;64623;44.738;37.804;2022-11-20T07:03:48;9.38;;;5.20;;
75295;SDS011;64623;44.738;37.804;2022-11-20T07:06:20;6.72;;;4.22;;
75295;SDS011;64623;44.738;37.804;2022-11-20T07:08:50;9.35;;;5.18;;
75295;SDS011;64623;44.738;37.804;2022-11-20T07:11:23;8.35;;;5.10;;
75295;SDS011;64623;44.738;37.804;2022-11-20T07:13:53;15.52;;;7.65;;
75295;SDS011;64623;44.738;37.804;2022-11-20T07:16:22;24.05;;;7.78;;
75295;SDS011;64623;44.738;37.804;2022-11-20T07:18:52;28.77;;;7.32;;
75295;SDS011;64623;44.738;37.804;2022-11-20T07:21:21;21.70;;;7.10;;
75295;SDS011;64623;44.738;37.804;2022-11-20T07:23:50;10.63;;;6.05;;
75295;SDS011;64623;44.738;37.804;2022-11-20T07:26:19;8.60;;;4.60;;
75295;SDS011;64623;44.738;37.804;2022-11-20T07:28:48;21.60;;;6.82;;
75295;SDS011;64623;44.738;37.804;2022-11-20T07:31:17;21.17;;;6.35;;
75295;SDS011;64623;44.738;37.804;2022-11-20T07:33:47;24.85;;;6.20;;
75295;SDS011;64623;44.738;37.804;2022-11-20T07:36:16;24.80;;;7.47;;
75295;SDS011;64623;44.738;37.804;2022-11-20T07:38:44;24.63;;;6.90;;
75295;SDS011;64623;44.738;37.804;2022-11-20T07:41:14;27.10;;;7.15;;
75295;SDS011;64623;44.738;37.804;2022-11-20T07:43:43;27.48;;;6.32;;
75295;SDS011;64623;44.738;37.804;2022-11-20T07:46:12;29.90;;;7.55;;
75295;SDS011;64623;44.738;37.804;2022-11-20T07:48:41;22.75;;;6.55;;
75295;SDS011;64623;44.738;37.804;2022-11-20T07:51:10;22.13;;;6.78;;
75295;SDS011;64623;44.738;37.804;2022-11-20T07:53:40;24.50;;;6.25;;
75295;SDS011;64623;44.738;37.804;2022-11-20T07:56:09;15.43;;;6.65;;
75295;SDS011;64623;44.738;37.804;2022-11-20T07:58:38;13.57;;;5.32;;
75295;SDS011;64623;44.738;37.804;2022-11-20T08:01:07;19.38;;;7.32;;
75295;SDS011;64623;44.738;37.804;2022-11-20T08:03:36;15.45;;;4.82;;
75295;SDS011;64623;44.738;37.804;2022-11-20T08:06:08;11.27;;;4.55;;
75295;SDS011;64623;44.738;37.804;2022-11-20T08:08:37;11.95;;;5.88;;
75295;SDS011;64623;44.738;37.804;2022-11-20T08:11:09;14.82;;;5.57;;
75295;SDS011;64623;44.738;37.804;2022-11-20T08:13:57;7.00;;;4.78;;
75295;SDS011;64623;44.738;37.804;2022-11-20T08:16:45;8.27;;;6.22;;
75295;SDS011;64623;44.738;37.804;2022-11-20T08:19:16;7.38;;;4.35;;
75295;SDS011;64623;44.738;37.804;2022-11-20T08:21:46;7.63;;;5.07;;
75295;SDS011;64623;44.738;37.804;2022-11-20T08:24:16;7.75;;;2.97;;
75295;SDS011;64623;44.738;37.804;2022-11-20T08:26:45;6.97;;;5.20;;
75295;SDS011;64623;44.738;37.804;2022-11-20T08:29:14;8.73;;;5.22;;
75295;SDS011;64623;44.738;37.804;2022-11-20T08:31:43;6.18;;;3.38;;
75295;SDS011;64623;44.738;37.804;2022-11-20T08:34:12;8.43;;;4.70;;
75295;SDS011;64623;44.738;37.804;2022-11-20T08:36:44;6.15;;;4.22;;
75295;SDS011;64623;44.738;37.804;2022-11-20T08:39:13;9.15;;;4.70;;
75295;SDS011;64623;44.738;37.804;2022-11-20T08:41:42;7.57;;;3.50;;
75295;SDS011;64623;44.738;37.804;2022-11-20T08:44:11;6.75;;;4.40;;
75295;SDS011;64623;44.738;37.804;2022-11-20T08:46:41;8.63;;;5.47;;
75295;SDS011;64623;44.738;37.804;2022-11-20T08:49:12;8.52;;;5.32;;
75295;SDS011;64623;44.738;37.804;2022-11-20T08:51:42;6.55;;;5.30;;
75295;SDS011;64623;44.738;37.804;2022-11-20T08:54:11;7.88;;;5.75;;
75295;SDS011;64623;44.738;37.804;2022-11-20T08:56:39;6.85;;;3.92;;
75295;SDS011;64623;44.738;37.804;2022-11-20T08:59:08;8.90;;;5.40;;
75295;SDS011;64623;44.738;37.804;2022-11-20T09:01:47;7.30;;;5.35;;
75295;SDS011;64623;44.738;37.804;2022-11-20T09:04:16;12.40;;;5.50;;
75295;SDS011;64623;44.738;37.804;2022-11-20T09:06:45;7.53;;;4.38;;
75295;SDS011;64623;44.738;37.804;2022-11-20T09:09:19;6.28;;;5.68;;
75295;SDS011;64623;44.738;37.804;2022-11-20T09:11:48;7.07;;;5.20;;
75295;SDS011;64623;44.738;37.804;2022-11-20T09:14:17;5.20;;;3.92;;
75295;SDS011;64623;44.738;37.804;2022-11-20T09:16:47;8.90;;;5.90;;
75295;SDS011;64623;44.738;37.804;2022-11-20T09:19:16;7.22;;;4.47;;
75295;SDS011;64623;44.738;37.804;2022-11-20T09:22:01;9.82;;;4.20;;
75295;SDS011;64623;44.738;37.804;2022-11-20T09:24:30;8.75;;;3.95;;
75295;SDS011;64623;44.738;37.804;2022-11-20T09:27:01;8.35;;;5.70;;
75295;SDS011;64623;44.738;37.804;2022-11-20T09:29:30;10.15;;;7.40;;
75295;SDS011;64623;44.738;37.804;2022-11-20T09:32:00;7.88;;;5.20;;
75295;SDS011;64623;44.738;37.804;2022-11-20T09:34:28;7.15;;;5.43;;
75295;SDS011;64623;44.738;37.804;2022-11-20T09:36:57;7.68;;;6.40;;
75295;SDS011;64623;44.738;37.804;2022-11-20T09:39:26;6.30;;;4.40;;
75295;SDS011;64623;44.738;37.804;2022-11-20T09:47:29;6.25;;;4.38;;
75295;SDS011;64623;44.738;37.804;2022-11-20T09:56:03;7.15;;;5.82;;
75295;SDS011;64623;44.738;37.804;2022-11-20T09:58:43;6.38;;;4.70;;
75295;SDS011;64623;44.738;37.804;2022-11-20T10:01:19;10.00;;;5.43;;
75295;SDS011;64623;44.738;37.804;2022-11-20T10:04:18;8.90;;;7.03;;
75295;SDS011;64623;44.738;37.804;2022-11-20T10:09:59;8.65;;;6.22;;
75295;SDS011;64623;44.738;37.804;2022-11-20T10:26:55;10.30;;;7.28;;
75295;SDS011;64623;44.738;37.804;2022-11-20T10:29:34;11.18;;;7.90;;
75295;SDS011;64623;44.738;37.804;2022-11-20T10:32:09;8.80;;;6.57;;
75295;SDS011;64623;44.738;37.804;2022-11-20T10:37:24;12.15;;;6.32;;
75295;SDS011;64623;44.738;37.804;2022-11-20T10:43:16;17.38;;;9.75;;
75295;SDS011;64623;44.738;37.804;2022-11-20T10:45:58;10.15;;;8.52;;
75295;SDS011;64623;44.738;37.804;2022-11-20T10:48:32;12.35;;;9.20;;
75295;SDS011;64623;44.738;37.804;2022-11-20T10:51:10;12.57;;;8.65;;
75295;SDS011;64623;44.738;37.804;2022-11-20T10:59:25;11.27;;;8.18;;
75295;SDS011;64623;44.738;37.804;2022-11-20T11:02:14;11.93;;;6.70;;
75295;SDS011;64623;44.738;37.804;2022-11-20T11:04:47;11.95;;;8.70;;
75295;SDS011;64623;44.738;37.804;2022-11-20T11:09:56;13.77;;;6.32;;
75295;SDS011;64623;44.738;37.804;2022-11-20T11:12:26;12.38;;;7.43;;
75295;SDS011;64623;44.738;37.804;2022-11-20T11:14:57;11.23;;;8.63;;
75295;SDS011;64623;44.738;37.804;2022-11-20T11:20:05;14.63;;;7.28;;
75295;SDS011;64623;44.738;37.804;2022-11-20T11:25:23;14.30;;;7.22;;
75295;SDS011;64623;44.738;37.804;2022-11-20T11:27:52;9.73;;;7.90;;
75295;SDS011;64623;44.738;37.804;2022-11-20T11:30:25;7.97;;;5.40;;
75295;SDS011;64623;44.738;37.804;2022-11-20T11:33:04;14.18;;;7.80;;
75295;SDS011;64623;44.738;37.804;2022-11-20T11:35:44;8.57;;;5.30;;
75295;SDS011;64623;44.738;37.804;2022-11-20T11:38:21;9.23;;;5.35;;
75295;SDS011;64623;44.738;37.804;2022-11-20T11:43:26;13.00;;;6.60;;
75295;SDS011;64623;44.738;37.804;2022-11-20T11:49:22;18.45;;;8.48;;
75295;SDS011;64623;44.738;37.804;2022-11-20T11:54:53;13.60;;;8.27;;
75295;SDS011;64623;44.738;37.804;2022-11-20T11:57:49;14.00;;;7.68;;
75295;SDS011;64623;44.738;37.804;2022-11-20T12:00:26;10.63;;;7.22;;
75295;SDS011;64623;44.738;37.804;2022-11-20T12:03:07;13.77;;;5.50;;
75295;SDS011;64623;44.738;37.804;2022-11-20T12:05:44;10.00;;;5.40;;
75295;SDS011;64623;44.738;37.804;2022-11-20T12:08:21;11.10;;;5.32;;
75295;SDS011;64623;44.738;37.804;2022-11-20T12:13:53;18.55;;;6.38;;
75295;SDS011;64623;44.738;37.804;2022-11-20T12:16:26;16.20;;;7.35;;
75295;SDS011;64623;44.738;37.804;2022-11-20T12:18:56;16.60;;;6.75;;
75295;SDS011;64623;44.738;37.804;2022-11-20T12:30:14;10.35;;;6.68;;
75295;SDS011;64623;44.738;37.804;2022-11-20T12:33:01;10.38;;;5.78;;
75295;SDS011;64623;44.738;37.804;2022-11-20T12:39:30;11.32;;;4.97;;
75295;SDS011;64623;44.738;37.804;2022-11-20T12:41:32;9.30;;;5.28;;
75295;SDS011;64623;44.738;37.804;2022-11-20T12:51:19;10.02;;;6.60;;
75295;SDS011;64623;44.738;37.804;2022-11-20T12:56:50;12.55;;;6.10;;
75295;SDS011;64623;44.738;37.804;2022-11-20T13:05:31;9.93;;;5.38;;
75295;SDS011;64623;44.738;37.804;2022-11-20T13:08:10;9.95;;;6.38;;
75295;SDS011;64623;44.738;37.804;2022-11-20T13:11:18;11.10;;;7.18;;
75295;SDS011;64623;44.738;37.804;2022-11-20T13:14:04;8.98;;;6.07;;
75295;SDS011;64623;44.738;37.804;2022-11-20T13:16:50;9.55;;;4.13;;
75295;SDS011;64623;44.738;37.804;2022-11-20T13:19:30;15.15;;;5.05;;
75295;SDS011;64623;44.738;37.804;2022-11-20T13:22:00;16.83;;;5.70;;
75295;SDS011;64623;44.738;37.804;2022-11-20T13:24:30;7.80;;;5.38;;
75295;SDS011;64623;44.738;37.804;2022-11-20T13:29:35;21.60;;;8.15;;
75295;SDS011;64623;44.738;37.804;2022-11-20T13:32:18;16.45;;;6.00;;
75295;SDS011;64623;44.738;37.804;2022-11-20T13:37:30;9.75;;;4.60;;
75295;SDS011;64623;44.738;37.804;2022-11-20T13:40:05;10.55;;;5.43;;
75295;SDS011;64623;44.738;37.804;2022-11-20T13:45:35;13.55;;;6.20;;
75295;SDS011;64623;44.738;37.804;2022-11-20T13:48:15;14.93;;;7.13;;
75295;SDS011;64623;44.738;37.804;2022-11-20T13:54:22;11.63;;;5.78;;
75295;SDS011;64623;44.738;37.804;2022-11-20T13:57:27;12.57;;;6.63;;
75295;SDS011;64623;44.738;37.804;2022-11-20T14:00:16;9.85;;;4.30;;
75295;SDS011;64623;44.738;37.804;2022-11-20T14:05:56;16.60;;;6.30;;
75295;SDS011;64623;44.738;37.804;2022-11-20T14:11:13;18.05;;;7.35;;
75295;SDS011;64623;44.738;37.804;2022-11-20T14:16:41;23.13;;;7.55;;
75295;SDS011;64623;44.738;37.804;2022-11-20T14:19:25;19.75;;;6.90;;
75295;SDS011;64623;44.738;37.804;2022-11-20T14:22:10;16.30;;;6.63;;
75295;SDS011;64623;44.738;37.804;2022-11-20T14:24:47;24.38;;;7.00;;
75295;SDS011;64623;44.738;37.804;2022-11-20T14:27:39;16.23;;;6.50;;
75295;SDS011;64623;44.738;37.804;2022-11-20T14:30:14;18.15;;;5.97;;
75295;SDS011;64623;44.738;37.804;2022-11-20T14:32:48;9.57;;;3.92;;
75295;SDS011;64623;44.738;37.804;2022-11-20T14:35:28;20.30;;;8.05;;
75295;SDS011;64623;44.738;37.804;2022-11-20T14:38:00;14.73;;;5.88;;
75295;SDS011;64623;44.738;37.804;2022-11-20T14:40:34;16.05;;;7.93;;
75295;SDS011;64623;44.738;37.804;2022-11-20T14:43:16;15.02;;;6.55;;
75295;SDS011;64623;44.738;37.804;2022-11-20T14:45:48;12.73;;;5.15;;
75295;SDS011;64623;44.738;37.804;2022-11-20T14:48:37;11.50;;;5.20;;
75295;SDS011;64623;44.738;37.804;2022-11-20T14:54:19;12.07;;;6.97;;
75295;SDS011;64623;44.738;37.804;2022-11-20T14:56:59;8.00;;;4.38;;
75295;SDS011;64623;44.738;37.804;2022-11-20T14:59:33;12.35;;;5.32;;
75295;SDS011;64623;44.738;37.804;2022-11-20T15:02:05;11.73;;;4.38;;
75295;SDS011;64623;44.738;37.804;2022-11-20T15:04:50;26.65;;;6.88;;
75295;SDS011;64623;44.738;37.804;2022-11-20T15:07:32;19.75;;;7.03;;
75295;SDS011;64623;44.738;37.804;2022-11-20T15:10:10;18.50;;;6.78;;
75295;SDS011;64623;44.738;37.804;2022-11-20T15:12:47;16.00;;;5.75;;
75295;SDS011;64623;44.738;37.804;2022-11-20T15:18:04;13.73;;;5.78;;
75295;SDS011;64623;44.738;37.804;2022-11-20T15:20:39;11.63;;;6.18;;
75295;SDS011;64623;44.738;37.804;2022-11-20T15:23:13;20.48;;;7.22;;
75295;SDS011;64623;44.738;37.804;2022-11-20T15:25:48;10.65;;;5.22;;
75295;SDS011;64623;44.738;37.804;2022-11-20T15:28:19;10.80;;;5.93;;
75295;SDS011;64623;44.738;37.804;2022-11-20T15:30:50;13.85;;;6.97;;
75295;SDS011;64623;44.738;37.804;2022-11-20T15:33:19;14.30;;;5.65;;
75295;SDS011;64623;44.738;37.804;2022-11-20T15:35:49;13.50;;;7.13;;
75295;SDS011;64623;44.738;37.804;2022-11-20T15:38:19;13.90;;;6.95;;
75295;SDS011;64623;44.738;37.804;2022-11-20T15:40:49;16.17;;;6.40;;
75295;SDS011;64623;44.738;37.804;2022-11-20T15:43:18;32.25;;;9.27;;
75295;SDS011;64623;44.738;37.804;2022-11-20T15:46:13;21.00;;;6.95;;
75295;SDS011;64623;44.738;37.804;2022-11-20T15:48:53;28.13;;;8.00;;
75295;SDS011;64623;44.738;37.804;2022-11-20T15:51:32;26.15;;;6.88;;
75295;SDS011;64623;44.738;37.804;2022-11-20T15:54:24;20.70;;;6.38;;
75295;SDS011;64623;44.738;37.804;2022-11-20T15:59:22;38.65;;;9.05;;
75295;SDS011;64623;44.738;37.804;2022-11-20T16:01:52;32.55;;;7.55;;
75295;SDS011;64623;44.738;37.804;2022-11-20T16:04:21;42.55;;;10.38;;
75295;SDS011;64623;44.738;37.804;2022-11-20T16:06:50;27.38;;;7.70;;
75295;SDS011;64623;44.738;37.804;2022-11-20T16:09:20;23.50;;;6.88;;
75295;SDS011;64623;44.738;37.804;2022-11-20T16:11:49;18.45;;;5.93;;
75295;SDS011;64623;44.738;37.804;2022-11-20T16:14:18;20.02;;;7.85;;
75295;SDS011;64623;44.738;37.804;2022-11-20T16:17:07;37.35;;;7.95;;
75295;SDS011;64623;44.738;37.804;2022-11-20T16:19:36;28.92;;;7.60;;
75295;SDS011;64623;44.738;37.804;2022-11-20T16:22:06;10.60;;;7.00;;
75295;SDS011;64623;44.738;37.804;2022-11-20T16:24:35;16.70;;;5.45;;
75295;SDS011;64623;44.738;37.804;2022-11-20T16:27:05;24.77;;;6.90;;
75295;SDS011;64623;44.738;37.804;2022-11-20T16:29:34;14.65;;;5.88;;
75295;SDS011;64623;44.738;37.804;2022-11-20T16:32:04;32.83;;;7.53;;
75295;SDS011;64623;44.738;37.804;2022-11-20T16:34:32;40.83;;;8.18;;
75295;SDS011;64623;44.738;37.804;2022-11-20T16:37:02;22.38;;;6.85;;
75295;SDS011;64623;44.738;37.804;2022-11-20T16:39:31;15.15;;;5.82;;
75295;SDS011;64623;44.738;37.804;2022-11-20T16:42:03;12.50;;;6.72;;
75295;SDS011;64623;44.738;37.804;2022-11-20T16:44:32;16.63;;;8.70;;
75295;SDS011;64623;44.738;37.804;2022-11-20T16:47:04;18.52;;;6.20;;
75295;SDS011;64623;44.738;37.804;2022-11-20T16:49:33;19.63;;;6.85;;
75295;SDS011;64623;44.738;37.804;2022-11-20T16:52:02;15.02;;;5.63;;
75295;SDS011;64623;44.738;37.804;2022-11-20T16:54:31;20.65;;;8.40;;
75295;SDS011;64623;44.738;37.804;2022-11-20T16:57:01;10.15;;;5.05;;
75295;SDS011;64623;44.738;37.804;2022-11-20T16:59:31;11.70;;;5.40;;
75295;SDS011;64623;44.738;37.804;2022-11-20T17:02:02;30.25;;;8.05;;
75295;SDS011;64623;44.738;37.804;2022-11-20T17:04:31;20.75;;;6.47;;
75295;SDS011;64623;44.738;37.804;2022-11-20T17:07:00;28.70;;;7.65;;
75295;SDS011;64623;44.738;37.804;2022-11-20T17:09:34;20.02;;;4.65;;
75295;SDS011;64623;44.738;37.804;2022-11-20T17:12:04;10.95;;;4.53;;